sensor_id;sensor_type;location;lat;lon;timestamp;P1;durP1;ratioP1;P2;durP2;ratioP2
30068;SDS011;16894;49.456;10.644;2022-08-19T00:01:22;43.85;;;35.80;;
30068;SDS011;16894;49.456;10.644;2022-08-19T00:03:47;43.33;;;37.43;;
30068;SDS011;16894;49.456;10.644;2022-08-19T00:06:13;44.03;;;38.92;;
30068;SDS011;16894;49.456;10.644;2022-08-19T00:08:39;44.45;;;36.03;;
30068;SDS011;16894;49.456;10.644;2022-08-19T00:11:05;49.95;;;39.85;;
30068;SDS011;16894;49.456;10.644;2022-08-19T00:13:32;45.42;;;38.42;;
30068;SDS011;16894;49.456;10.644;2022-08-19T00:15:58;48.67;;;42.50;;
30068;SDS011;16894;49.456;10.644;2022-08-19T00:18:25;49.25;;;44.03;;
30068;SDS011;16894;49.456;10.644;2022-08-19T00:20:52;46.50;;;41.47;;
30068;SDS011;16894;49.456;10.644;2022-08-19T00:23:18;48.28;;;41.45;;
30068;SDS011;16894;49.456;10.644;2022-08-19T00:25:44;45.58;;;40.67;;
30068;SDS011;16894;49.456;10.644;2022-08-19T00:28:10;48.67;;;43.55;;
30068;SDS011;16894;49.456;10.644;2022-08-19T00:30:36;50.00;;;42.22;;
30068;SDS011;16894;49.456;10.644;2022-08-19T00:33:02;50.40;;;41.90;;
30068;SDS011;16894;49.456;10.644;2022-08-19T00:35:28;46.95;;;41.20;;
30068;SDS011;16894;49.456;10.644;2022-08-19T00:37:54;51.33;;;41.40;;
30068;SDS011;16894;49.456;10.644;2022-08-19T00:42:45;47.90;;;38.78;;
30068;SDS011;16894;49.456;10.644;2022-08-19T00:45:14;45.50;;;40.60;;
30068;SDS011;16894;49.456;10.644;2022-08-19T00:47:42;47.50;;;41.72;;
30068;SDS011;16894;49.456;10.644;2022-08-19T00:50:09;48.75;;;42.85;;
30068;SDS011;16894;49.456;10.644;2022-08-19T00:52:39;49.65;;;44.40;;
30068;SDS011;16894;49.456;10.644;2022-08-19T00:55:10;59.05;;;52.67;;
30068;SDS011;16894;49.456;10.644;2022-08-19T00:57:40;64.55;;;57.70;;
30068;SDS011;16894;49.456;10.644;2022-08-19T01:00:10;73.60;;;66.50;;
30068;SDS011;16894;49.456;10.644;2022-08-19T01:02:39;73.40;;;66.25;;
30068;SDS011;16894;49.456;10.644;2022-08-19T01:05:09;73.70;;;66.97;;
30068;SDS011;16894;49.456;10.644;2022-08-19T01:07:40;74.22;;;67.30;;
30068;SDS011;16894;49.456;10.644;2022-08-19T01:10:09;76.40;;;69.10;;
30068;SDS011;16894;49.456;10.644;2022-08-19T01:12:39;73.50;;;66.28;;
30068;SDS011;16894;49.456;10.644;2022-08-19T01:15:05;77.47;;;69.32;;
30068;SDS011;16894;49.456;10.644;2022-08-19T01:17:33;78.10;;;70.45;;
30068;SDS011;16894;49.456;10.644;2022-08-19T01:20:02;78.22;;;70.70;;
30068;SDS011;16894;49.456;10.644;2022-08-19T01:25:09;76.00;;;68.88;;
30068;SDS011;16894;49.456;10.644;2022-08-19T01:27:38;76.00;;;68.82;;
30068;SDS011;16894;49.456;10.644;2022-08-19T01:30:07;73.25;;;66.28;;
30068;SDS011;16894;49.456;10.644;2022-08-19T01:32:33;71.15;;;64.32;;
30068;SDS011;16894;49.456;10.644;2022-08-19T01:37:26;70.07;;;63.25;;
30068;SDS011;16894;49.456;10.644;2022-08-19T01:39:52;72.70;;;65.50;;
30068;SDS011;16894;49.456;10.644;2022-08-19T01:42:18;73.45;;;65.97;;
30068;SDS011;16894;49.456;10.644;2022-08-19T01:47:10;58.33;;;51.60;;
30068;SDS011;16894;49.456;10.644;2022-08-19T01:49:36;51.97;;;46.28;;
30068;SDS011;16894;49.456;10.644;2022-08-19T01:52:02;55.45;;;46.45;;
30068;SDS011;16894;49.456;10.644;2022-08-19T01:56:59;55.67;;;46.88;;
30068;SDS011;16894;49.456;10.644;2022-08-19T01:59:28;60.50;;;47.80;;
30068;SDS011;16894;49.456;10.644;2022-08-19T02:01:54;53.00;;;47.22;;
30068;SDS011;16894;49.456;10.644;2022-08-19T02:04:20;52.97;;;46.25;;
30068;SDS011;16894;49.456;10.644;2022-08-19T02:06:45;50.60;;;40.90;;
30068;SDS011;16894;49.456;10.644;2022-08-19T02:09:11;47.77;;;38.73;;
30068;SDS011;16894;49.456;10.644;2022-08-19T02:11:37;54.58;;;38.08;;
30068;SDS011;16894;49.456;10.644;2022-08-19T02:14:05;53.60;;;38.70;;
30068;SDS011;16894;49.456;10.644;2022-08-19T02:16:32;52.08;;;36.92;;
30068;SDS011;16894;49.456;10.644;2022-08-19T02:18:59;50.42;;;37.05;;
30068;SDS011;16894;49.456;10.644;2022-08-19T02:21:27;47.50;;;36.80;;
30068;SDS011;16894;49.456;10.644;2022-08-19T02:23:54;51.42;;;38.33;;
30068;SDS011;16894;49.456;10.644;2022-08-19T02:26:20;52.25;;;39.13;;
30068;SDS011;16894;49.456;10.644;2022-08-19T02:28:46;49.78;;;36.97;;
30068;SDS011;16894;49.456;10.644;2022-08-19T02:31:14;50.88;;;36.38;;
30068;SDS011;16894;49.456;10.644;2022-08-19T02:33:42;52.72;;;36.97;;
30068;SDS011;16894;49.456;10.644;2022-08-19T02:36:09;50.67;;;37.25;;
30068;SDS011;16894;49.456;10.644;2022-08-19T02:38:36;50.13;;;37.25;;
30068;SDS011;16894;49.456;10.644;2022-08-19T02:41:03;49.97;;;36.72;;
30068;SDS011;16894;49.456;10.644;2022-08-19T02:43:31;49.28;;;34.58;;
30068;SDS011;16894;49.456;10.644;2022-08-19T02:46:01;49.67;;;36.25;;
30068;SDS011;16894;49.456;10.644;2022-08-19T02:48:27;48.83;;;36.65;;
30068;SDS011;16894;49.456;10.644;2022-08-19T02:50:53;51.73;;;36.40;;
30068;SDS011;16894;49.456;10.644;2022-08-19T02:53:23;53.58;;;36.30;;
30068;SDS011;16894;49.456;10.644;2022-08-19T02:55:50;52.03;;;35.47;;
30068;SDS011;16894;49.456;10.644;2022-08-19T02:58:16;47.10;;;34.15;;
30068;SDS011;16894;49.456;10.644;2022-08-19T03:00:46;47.47;;;33.90;;
30068;SDS011;16894;49.456;10.644;2022-08-19T03:03:19;51.72;;;34.97;;
30068;SDS011;16894;49.456;10.644;2022-08-19T03:05:45;60.50;;;38.10;;
30068;SDS011;16894;49.456;10.644;2022-08-19T03:08:12;49.40;;;34.45;;
30068;SDS011;16894;49.456;10.644;2022-08-19T03:13:09;46.67;;;31.90;;
30068;SDS011;16894;49.456;10.644;2022-08-19T03:15:40;49.00;;;33.75;;
30068;SDS011;16894;49.456;10.644;2022-08-19T03:18:07;48.67;;;33.80;;
30068;SDS011;16894;49.456;10.644;2022-08-19T03:20:34;47.30;;;34.67;;
30068;SDS011;16894;49.456;10.644;2022-08-19T03:23:05;53.78;;;36.00;;
30068;SDS011;16894;49.456;10.644;2022-08-19T03:25:30;52.90;;;35.65;;
30068;SDS011;16894;49.456;10.644;2022-08-19T03:28:02;52.67;;;35.65;;
30068;SDS011;16894;49.456;10.644;2022-08-19T03:30:28;49.83;;;34.92;;
30068;SDS011;16894;49.456;10.644;2022-08-19T03:32:53;55.97;;;38.00;;
30068;SDS011;16894;49.456;10.644;2022-08-19T03:35:19;51.30;;;36.70;;
30068;SDS011;16894;49.456;10.644;2022-08-19T03:37:45;56.35;;;36.83;;
30068;SDS011;16894;49.456;10.644;2022-08-19T03:40:10;49.63;;;34.67;;
30068;SDS011;16894;49.456;10.644;2022-08-19T03:42:36;53.90;;;35.95;;
30068;SDS011;16894;49.456;10.644;2022-08-19T03:45:02;49.38;;;33.60;;
30068;SDS011;16894;49.456;10.644;2022-08-19T03:47:28;49.92;;;34.63;;
30068;SDS011;16894;49.456;10.644;2022-08-19T03:49:55;51.38;;;35.75;;
30068;SDS011;16894;49.456;10.644;2022-08-19T03:52:20;51.47;;;35.80;;
30068;SDS011;16894;49.456;10.644;2022-08-19T03:54:46;50.37;;;34.47;;
30068;SDS011;16894;49.456;10.644;2022-08-19T03:57:12;51.10;;;34.77;;
30068;SDS011;16894;49.456;10.644;2022-08-19T03:59:37;51.17;;;35.73;;
30068;SDS011;16894;49.456;10.644;2022-08-19T04:04:35;54.65;;;34.38;;
30068;SDS011;16894;49.456;10.644;2022-08-19T04:07:05;53.33;;;36.83;;
30068;SDS011;16894;49.456;10.644;2022-08-19T04:09:30;51.53;;;34.80;;
30068;SDS011;16894;49.456;10.644;2022-08-19T04:11:58;61.80;;;36.55;;
30068;SDS011;16894;49.456;10.644;2022-08-19T04:14:25;52.38;;;34.17;;
30068;SDS011;16894;49.456;10.644;2022-08-19T04:16:54;55.03;;;35.60;;
30068;SDS011;16894;49.456;10.644;2022-08-19T04:19:21;55.33;;;34.85;;
30068;SDS011;16894;49.456;10.644;2022-08-19T04:21:49;52.65;;;34.03;;
30068;SDS011;16894;49.456;10.644;2022-08-19T04:24:16;56.72;;;36.03;;
30068;SDS011;16894;49.456;10.644;2022-08-19T04:26:42;55.53;;;36.22;;
30068;SDS011;16894;49.456;10.644;2022-08-19T04:29:10;55.25;;;34.92;;
30068;SDS011;16894;49.456;10.644;2022-08-19T04:31:38;48.08;;;32.90;;
30068;SDS011;16894;49.456;10.644;2022-08-19T04:34:06;54.88;;;36.28;;
30068;SDS011;16894;49.456;10.644;2022-08-19T04:36:34;46.13;;;33.53;;
30068;SDS011;16894;49.456;10.644;2022-08-19T04:39:03;51.00;;;34.55;;
30068;SDS011;16894;49.456;10.644;2022-08-19T04:41:32;55.47;;;35.38;;
30068;SDS011;16894;49.456;10.644;2022-08-19T04:44:17;52.30;;;34.35;;
30068;SDS011;16894;49.456;10.644;2022-08-19T04:46:43;52.20;;;35.17;;
30068;SDS011;16894;49.456;10.644;2022-08-19T04:49:10;51.22;;;34.03;;
30068;SDS011;16894;49.456;10.644;2022-08-19T04:51:40;52.53;;;35.50;;
30068;SDS011;16894;49.456;10.644;2022-08-19T04:54:07;55.05;;;35.53;;
30068;SDS011;16894;49.456;10.644;2022-08-19T04:56:33;50.90;;;35.35;;
30068;SDS011;16894;49.456;10.644;2022-08-19T04:58:59;55.13;;;35.28;;
30068;SDS011;16894;49.456;10.644;2022-08-19T05:01:28;52.78;;;32.92;;
30068;SDS011;16894;49.456;10.644;2022-08-19T05:03:55;59.22;;;36.20;;
30068;SDS011;16894;49.456;10.644;2022-08-19T05:06:22;52.38;;;34.97;;
30068;SDS011;16894;49.456;10.644;2022-08-19T05:08:49;52.30;;;34.15;;
30068;SDS011;16894;49.456;10.644;2022-08-19T05:11:22;54.90;;;34.55;;
30068;SDS011;16894;49.456;10.644;2022-08-19T05:13:53;46.00;;;31.67;;
30068;SDS011;16894;49.456;10.644;2022-08-19T05:16:20;48.97;;;34.05;;
30068;SDS011;16894;49.456;10.644;2022-08-19T05:18:49;53.55;;;34.10;;
30068;SDS011;16894;49.456;10.644;2022-08-19T05:21:34;53.97;;;36.80;;
30068;SDS011;16894;49.456;10.644;2022-08-19T05:24:19;48.75;;;34.05;;
30068;SDS011;16894;49.456;10.644;2022-08-19T05:26:46;52.20;;;35.35;;
30068;SDS011;16894;49.456;10.644;2022-08-19T05:29:15;50.70;;;35.67;;
30068;SDS011;16894;49.456;10.644;2022-08-19T05:31:44;51.22;;;34.90;;
30068;SDS011;16894;49.456;10.644;2022-08-19T05:34:10;51.33;;;33.85;;
30068;SDS011;16894;49.456;10.644;2022-08-19T05:36:37;52.83;;;34.63;;
30068;SDS011;16894;49.456;10.644;2022-08-19T05:39:10;52.92;;;33.10;;
30068;SDS011;16894;49.456;10.644;2022-08-19T05:41:45;51.03;;;35.22;;
30068;SDS011;16894;49.456;10.644;2022-08-19T05:44:13;55.75;;;36.78;;
30068;SDS011;16894;49.456;10.644;2022-08-19T05:46:41;56.22;;;36.55;;
30068;SDS011;16894;49.456;10.644;2022-08-19T05:49:09;52.35;;;35.75;;
30068;SDS011;16894;49.456;10.644;2022-08-19T05:51:35;56.10;;;36.72;;
30068;SDS011;16894;49.456;10.644;2022-08-19T05:54:02;51.33;;;35.22;;
30068;SDS011;16894;49.456;10.644;2022-08-19T05:56:29;49.20;;;36.38;;
30068;SDS011;16894;49.456;10.644;2022-08-19T05:58:56;53.45;;;35.20;;
30068;SDS011;16894;49.456;10.644;2022-08-19T06:01:23;50.13;;;34.33;;
30068;SDS011;16894;49.456;10.644;2022-08-19T06:03:50;52.65;;;35.13;;
30068;SDS011;16894;49.456;10.644;2022-08-19T06:08:42;56.50;;;35.72;;
30068;SDS011;16894;49.456;10.644;2022-08-19T06:11:14;47.85;;;31.85;;
30068;SDS011;16894;49.456;10.644;2022-08-19T06:13:43;47.17;;;32.50;;
30068;SDS011;16894;49.456;10.644;2022-08-19T06:16:12;48.28;;;33.60;;
30068;SDS011;16894;49.456;10.644;2022-08-19T06:18:44;49.63;;;34.20;;
30068;SDS011;16894;49.456;10.644;2022-08-19T06:21:10;48.28;;;31.95;;
30068;SDS011;16894;49.456;10.644;2022-08-19T06:23:35;50.85;;;34.13;;
30068;SDS011;16894;49.456;10.644;2022-08-19T06:26:01;47.17;;;35.57;;
30068;SDS011;16894;49.456;10.644;2022-08-19T06:28:26;45.85;;;34.42;;
30068;SDS011;16894;49.456;10.644;2022-08-19T06:30:52;44.20;;;33.47;;
30068;SDS011;16894;49.456;10.644;2022-08-19T06:33:18;45.57;;;34.40;;
30068;SDS011;16894;49.456;10.644;2022-08-19T06:35:43;51.47;;;34.20;;
30068;SDS011;16894;49.456;10.644;2022-08-19T06:38:09;47.47;;;32.88;;
30068;SDS011;16894;49.456;10.644;2022-08-19T06:40:35;44.97;;;34.60;;
30068;SDS011;16894;49.456;10.644;2022-08-19T06:43:02;48.55;;;34.38;;
30068;SDS011;16894;49.456;10.644;2022-08-19T06:45:28;46.50;;;33.87;;
30068;SDS011;16894;49.456;10.644;2022-08-19T06:47:55;48.00;;;34.88;;
30068;SDS011;16894;49.456;10.644;2022-08-19T06:50:21;52.10;;;36.90;;
30068;SDS011;16894;49.456;10.644;2022-08-19T06:52:48;46.05;;;36.35;;
30068;SDS011;16894;49.456;10.644;2022-08-19T06:55:14;47.83;;;34.67;;
30068;SDS011;16894;49.456;10.644;2022-08-19T06:57:41;48.28;;;35.67;;
30068;SDS011;16894;49.456;10.644;2022-08-19T07:00:08;44.13;;;33.88;;
30068;SDS011;16894;49.456;10.644;2022-08-19T07:02:41;49.92;;;36.05;;
30068;SDS011;16894;49.456;10.644;2022-08-19T07:05:08;46.17;;;33.90;;
30068;SDS011;16894;49.456;10.644;2022-08-19T07:07:34;40.75;;;32.13;;
30068;SDS011;16894;49.456;10.644;2022-08-19T07:10:00;38.33;;;30.63;;
30068;SDS011;16894;49.456;10.644;2022-08-19T07:12:27;41.55;;;33.42;;
30068;SDS011;16894;49.456;10.644;2022-08-19T07:14:58;41.53;;;31.90;;
30068;SDS011;16894;49.456;10.644;2022-08-19T07:17:24;42.15;;;32.00;;
30068;SDS011;16894;49.456;10.644;2022-08-19T07:22:16;42.63;;;31.70;;
30068;SDS011;16894;49.456;10.644;2022-08-19T07:27:08;39.85;;;30.17;;
30068;SDS011;16894;49.456;10.644;2022-08-19T07:29:35;38.50;;;31.70;;
30068;SDS011;16894;49.456;10.644;2022-08-19T07:32:02;37.10;;;30.30;;
30068;SDS011;16894;49.456;10.644;2022-08-19T07:34:29;40.13;;;31.55;;
30068;SDS011;16894;49.456;10.644;2022-08-19T07:36:55;38.92;;;29.88;;
30068;SDS011;16894;49.456;10.644;2022-08-19T07:39:23;38.10;;;29.25;;
30068;SDS011;16894;49.456;10.644;2022-08-19T07:41:51;40.00;;;30.50;;
30068;SDS011;16894;49.456;10.644;2022-08-19T07:46:45;38.83;;;30.98;;
30068;SDS011;16894;49.456;10.644;2022-08-19T07:49:14;36.40;;;29.38;;
30068;SDS011;16894;49.456;10.644;2022-08-19T07:51:45;44.35;;;30.10;;
30068;SDS011;16894;49.456;10.644;2022-08-19T07:54:17;40.25;;;30.83;;
30068;SDS011;16894;49.456;10.644;2022-08-19T07:56:44;40.35;;;30.13;;
30068;SDS011;16894;49.456;10.644;2022-08-19T07:59:10;48.08;;;30.40;;
30068;SDS011;16894;49.456;10.644;2022-08-19T08:04:02;37.35;;;30.20;;
30068;SDS011;16894;49.456;10.644;2022-08-19T08:06:46;44.35;;;32.08;;
30068;SDS011;16894;49.456;10.644;2022-08-19T08:09:33;45.22;;;31.63;;
30068;SDS011;16894;49.456;10.644;2022-08-19T08:12:02;46.60;;;31.50;;
30068;SDS011;16894;49.456;10.644;2022-08-19T08:14:33;39.55;;;30.67;;
30068;SDS011;16894;49.456;10.644;2022-08-19T08:17:02;38.25;;;29.55;;
30068;SDS011;16894;49.456;10.644;2022-08-19T08:19:29;43.55;;;31.50;;
30068;SDS011;16894;49.456;10.644;2022-08-19T08:21:56;44.25;;;31.80;;
30068;SDS011;16894;49.456;10.644;2022-08-19T08:24:23;44.25;;;31.05;;
30068;SDS011;16894;49.456;10.644;2022-08-19T08:26:50;43.88;;;30.40;;
30068;SDS011;16894;49.456;10.644;2022-08-19T08:29:16;43.10;;;31.67;;
30068;SDS011;16894;49.456;10.644;2022-08-19T08:31:42;41.40;;;29.58;;
30068;SDS011;16894;49.456;10.644;2022-08-19T08:34:09;39.78;;;30.70;;
30068;SDS011;16894;49.456;10.644;2022-08-19T08:36:36;42.95;;;29.23;;
30068;SDS011;16894;49.456;10.644;2022-08-19T08:39:07;36.30;;;28.77;;
30068;SDS011;16894;49.456;10.644;2022-08-19T08:41:35;42.05;;;30.17;;
30068;SDS011;16894;49.456;10.644;2022-08-19T08:45:06;45.85;;;27.63;;
30068;SDS011;16894;49.456;10.644;2022-08-19T08:47:14;35.45;;;28.15;;
30068;SDS011;16894;49.456;10.644;2022-08-19T08:52:15;46.97;;;29.42;;
30068;SDS011;16894;49.456;10.644;2022-08-19T08:54:48;37.73;;;29.27;;
30068;SDS011;16894;49.456;10.644;2022-08-19T08:57:40;41.83;;;28.85;;
30068;SDS011;16894;49.456;10.644;2022-08-19T09:00:23;39.05;;;27.65;;
30068;SDS011;16894;49.456;10.644;2022-08-19T09:05:22;38.03;;;28.73;;
30068;SDS011;16894;49.456;10.644;2022-08-19T09:13:08;36.40;;;28.52;;
30068;SDS011;16894;49.456;10.644;2022-08-19T09:16:00;35.85;;;26.05;;
30068;SDS011;16894;49.456;10.644;2022-08-19T09:18:43;37.03;;;26.95;;
30068;SDS011;16894;49.456;10.644;2022-08-19T09:21:17;33.83;;;25.98;;
30068;SDS011;16894;49.456;10.644;2022-08-19T09:23:43;32.72;;;25.27;;
30068;SDS011;16894;49.456;10.644;2022-08-19T09:26:10;37.67;;;24.42;;
30068;SDS011;16894;49.456;10.644;2022-08-19T09:28:39;47.28;;;27.70;;
30068;SDS011;16894;49.456;10.644;2022-08-19T09:31:29;33.53;;;25.90;;
30068;SDS011;16894;49.456;10.644;2022-08-19T09:33:54;34.85;;;24.70;;
30068;SDS011;16894;49.456;10.644;2022-08-19T09:36:24;34.58;;;26.20;;
30068;SDS011;16894;49.456;10.644;2022-08-19T09:38:54;37.78;;;26.35;;
30068;SDS011;16894;49.456;10.644;2022-08-19T09:41:21;37.88;;;26.33;;
30068;SDS011;16894;49.456;10.644;2022-08-19T09:43:49;39.75;;;26.25;;
30068;SDS011;16894;49.456;10.644;2022-08-19T09:46:21;36.40;;;26.27;;
30068;SDS011;16894;49.456;10.644;2022-08-19T09:48:49;35.67;;;27.48;;
30068;SDS011;16894;49.456;10.644;2022-08-19T09:51:17;35.15;;;25.42;;
30068;SDS011;16894;49.456;10.644;2022-08-19T09:53:44;34.88;;;25.80;;
30068;SDS011;16894;49.456;10.644;2022-08-19T09:56:11;42.72;;;24.85;;
30068;SDS011;16894;49.456;10.644;2022-08-19T09:58:38;32.88;;;25.42;;
30068;SDS011;16894;49.456;10.644;2022-08-19T10:01:04;29.45;;;23.42;;
30068;SDS011;16894;49.456;10.644;2022-08-19T10:03:31;38.03;;;23.85;;
30068;SDS011;16894;49.456;10.644;2022-08-19T10:05:59;33.33;;;25.55;;
30068;SDS011;16894;49.456;10.644;2022-08-19T10:08:32;33.05;;;26.90;;
30068;SDS011;16894;49.456;10.644;2022-08-19T10:10:59;32.53;;;25.27;;
30068;SDS011;16894;49.456;10.644;2022-08-19T10:13:27;31.58;;;26.15;;
30068;SDS011;16894;49.456;10.644;2022-08-19T10:15:56;29.85;;;26.13;;
30068;SDS011;16894;49.456;10.644;2022-08-19T10:18:28;29.38;;;26.33;;
30068;SDS011;16894;49.456;10.644;2022-08-19T10:23:28;32.05;;;24.55;;
30068;SDS011;16894;49.456;10.644;2022-08-19T10:25:58;33.33;;;27.60;;
30068;SDS011;16894;49.456;10.644;2022-08-19T10:28:24;34.17;;;27.60;;
30068;SDS011;16894;49.456;10.644;2022-08-19T10:30:50;31.00;;;27.38;;
30068;SDS011;16894;49.456;10.644;2022-08-19T10:33:16;30.08;;;26.75;;
30068;SDS011;16894;49.456;10.644;2022-08-19T10:35:41;30.57;;;27.37;;
30068;SDS011;16894;49.456;10.644;2022-08-19T10:38:07;31.13;;;27.83;;
30068;SDS011;16894;49.456;10.644;2022-08-19T10:40:32;29.80;;;26.60;;
30068;SDS011;16894;49.456;10.644;2022-08-19T10:42:59;44.03;;;27.92;;
30068;SDS011;16894;49.456;10.644;2022-08-19T10:45:24;33.35;;;27.98;;
30068;SDS011;16894;49.456;10.644;2022-08-19T10:47:54;33.97;;;30.40;;
30068;SDS011;16894;49.456;10.644;2022-08-19T10:50:21;31.25;;;28.05;;
30068;SDS011;16894;49.456;10.644;2022-08-19T10:53:06;35.05;;;27.45;;
30068;SDS011;16894;49.456;10.644;2022-08-19T10:55:35;30.48;;;26.17;;
30068;SDS011;16894;49.456;10.644;2022-08-19T10:58:20;32.60;;;27.60;;
30068;SDS011;16894;49.456;10.644;2022-08-19T11:00:55;31.63;;;27.42;;
30068;SDS011;16894;49.456;10.644;2022-08-19T11:03:22;29.98;;;26.80;;
30068;SDS011;16894;49.456;10.644;2022-08-19T11:06:02;31.63;;;28.42;;
30068;SDS011;16894;49.456;10.644;2022-08-19T11:08:30;32.20;;;28.83;;
30068;SDS011;16894;49.456;10.644;2022-08-19T11:10:58;35.38;;;28.63;;
30068;SDS011;16894;49.456;10.644;2022-08-19T11:13:26;31.52;;;27.38;;
30068;SDS011;16894;49.456;10.644;2022-08-19T11:16:12;30.60;;;27.42;;
30068;SDS011;16894;49.456;10.644;2022-08-19T11:18:42;30.85;;;27.85;;
30068;SDS011;16894;49.456;10.644;2022-08-19T11:21:15;32.80;;;28.40;;
30068;SDS011;16894;49.456;10.644;2022-08-19T11:23:50;31.70;;;28.67;;
30068;SDS011;16894;49.456;10.644;2022-08-19T11:26:18;33.55;;;30.33;;
30068;SDS011;16894;49.456;10.644;2022-08-19T11:28:45;34.10;;;30.73;;
30068;SDS011;16894;49.456;10.644;2022-08-19T11:31:14;36.50;;;32.88;;
30068;SDS011;16894;49.456;10.644;2022-08-19T11:33:44;31.88;;;28.73;;
30068;SDS011;16894;49.456;10.644;2022-08-19T11:36:11;31.88;;;28.92;;
30068;SDS011;16894;49.456;10.644;2022-08-19T11:38:38;29.15;;;26.35;;
30068;SDS011;16894;49.456;10.644;2022-08-19T11:43:32;26.48;;;23.98;;
30068;SDS011;16894;49.456;10.644;2022-08-19T11:45:58;25.73;;;23.33;;
30068;SDS011;16894;49.456;10.644;2022-08-19T11:48:24;27.85;;;25.45;;
30068;SDS011;16894;49.456;10.644;2022-08-19T11:50:51;28.67;;;26.02;;
30068;SDS011;16894;49.456;10.644;2022-08-19T11:53:20;30.98;;;27.92;;
30068;SDS011;16894;49.456;10.644;2022-08-19T11:55:46;29.92;;;27.02;;
30068;SDS011;16894;49.456;10.644;2022-08-19T12:00:39;26.38;;;24.13;;
30068;SDS011;16894;49.456;10.644;2022-08-19T12:03:05;28.55;;;25.77;;
30068;SDS011;16894;49.456;10.644;2022-08-19T12:05:31;30.30;;;27.27;;
30068;SDS011;16894;49.456;10.644;2022-08-19T12:07:57;30.92;;;27.45;;
30068;SDS011;16894;49.456;10.644;2022-08-19T12:10:23;29.70;;;26.95;;
30068;SDS011;16894;49.456;10.644;2022-08-19T12:12:49;29.85;;;26.92;;
30068;SDS011;16894;49.456;10.644;2022-08-19T12:15:15;35.63;;;32.55;;
30068;SDS011;16894;49.456;10.644;2022-08-19T12:17:41;31.20;;;28.42;;
30068;SDS011;16894;49.456;10.644;2022-08-19T12:20:08;26.60;;;24.10;;
30068;SDS011;16894;49.456;10.644;2022-08-19T12:22:36;27.27;;;21.98;;
30068;SDS011;16894;49.456;10.644;2022-08-19T12:25:03;25.20;;;20.67;;
30068;SDS011;16894;49.456;10.644;2022-08-19T12:27:30;28.50;;;22.58;;
30068;SDS011;16894;49.456;10.644;2022-08-19T12:29:56;24.70;;;21.75;;
30068;SDS011;16894;49.456;10.644;2022-08-19T12:32:22;28.45;;;22.20;;
30068;SDS011;16894;49.456;10.644;2022-08-19T12:34:49;27.20;;;23.10;;
30068;SDS011;16894;49.456;10.644;2022-08-19T12:37:15;26.30;;;19.52;;
30068;SDS011;16894;49.456;10.644;2022-08-19T12:42:08;32.88;;;22.85;;
30068;SDS011;16894;49.456;10.644;2022-08-19T12:44:38;34.75;;;21.67;;
30068;SDS011;16894;49.456;10.644;2022-08-19T12:47:05;26.45;;;19.55;;
30068;SDS011;16894;49.456;10.644;2022-08-19T12:51:59;30.20;;;21.17;;
30068;SDS011;16894;49.456;10.644;2022-08-19T12:54:25;30.38;;;22.02;;
30068;SDS011;16894;49.456;10.644;2022-08-19T12:59:17;32.47;;;21.35;;
30068;SDS011;16894;49.456;10.644;2022-08-19T13:04:09;30.65;;;20.50;;
30068;SDS011;16894;49.456;10.644;2022-08-19T13:06:35;24.13;;;18.83;;
30068;SDS011;16894;49.456;10.644;2022-08-19T13:09:02;26.25;;;18.95;;
30068;SDS011;16894;49.456;10.644;2022-08-19T13:11:29;31.05;;;19.13;;
30068;SDS011;16894;49.456;10.644;2022-08-19T13:13:58;23.52;;;18.38;;
30068;SDS011;16894;49.456;10.644;2022-08-19T13:16:24;20.23;;;17.50;;
30068;SDS011;16894;49.456;10.644;2022-08-19T13:18:50;27.67;;;17.52;;
30068;SDS011;16894;49.456;10.644;2022-08-19T13:21:19;24.48;;;18.67;;
30068;SDS011;16894;49.456;10.644;2022-08-19T13:23:47;26.10;;;19.85;;
30068;SDS011;16894;49.456;10.644;2022-08-19T13:26:14;21.25;;;18.95;;
30068;SDS011;16894;49.456;10.644;2022-08-19T13:28:40;24.70;;;19.63;;
30068;SDS011;16894;49.456;10.644;2022-08-19T13:31:27;22.88;;;19.75;;
30068;SDS011;16894;49.456;10.644;2022-08-19T13:34:13;32.95;;;21.10;;
30068;SDS011;16894;49.456;10.644;2022-08-19T13:36:40;27.38;;;20.30;;
30068;SDS011;16894;49.456;10.644;2022-08-19T13:39:06;30.60;;;22.83;;
30068;SDS011;16894;49.456;10.644;2022-08-19T13:41:33;33.10;;;24.67;;
30068;SDS011;16894;49.456;10.644;2022-08-19T13:46:26;33.87;;;27.20;;
30068;SDS011;16894;49.456;10.644;2022-08-19T13:48:55;34.55;;;28.98;;
30068;SDS011;16894;49.456;10.644;2022-08-19T13:53:47;36.33;;;32.60;;
30068;SDS011;16894;49.456;10.644;2022-08-19T13:56:13;38.90;;;33.60;;
30068;SDS011;16894;49.456;10.644;2022-08-19T13:58:41;32.50;;;27.52;;
30068;SDS011;16894;49.456;10.644;2022-08-19T14:01:07;43.40;;;32.67;;
30068;SDS011;16894;49.456;10.644;2022-08-19T14:03:34;33.47;;;29.95;;
30068;SDS011;16894;49.456;10.644;2022-08-19T14:05:59;34.88;;;31.52;;
30068;SDS011;16894;49.456;10.644;2022-08-19T14:10:56;30.30;;;26.73;;
30068;SDS011;16894;49.456;10.644;2022-08-19T14:13:24;32.70;;;29.48;;
30068;SDS011;16894;49.456;10.644;2022-08-19T14:15:50;32.30;;;29.23;;
30068;SDS011;16894;49.456;10.644;2022-08-19T14:18:17;40.92;;;37.15;;
30068;SDS011;16894;49.456;10.644;2022-08-19T14:20:43;38.42;;;34.60;;
30068;SDS011;16894;49.456;10.644;2022-08-19T14:23:09;38.35;;;34.88;;
30068;SDS011;16894;49.456;10.644;2022-08-19T14:25:37;48.25;;;43.55;;
30068;SDS011;16894;49.456;10.644;2022-08-19T14:28:03;48.50;;;44.38;;
30068;SDS011;16894;49.456;10.644;2022-08-19T14:30:32;57.13;;;51.63;;
30068;SDS011;16894;49.456;10.644;2022-08-19T14:33:00;54.05;;;41.08;;
30068;SDS011;16894;49.456;10.644;2022-08-19T14:35:28;55.95;;;46.72;;
30068;SDS011;16894;49.456;10.644;2022-08-19T14:37:57;56.95;;;42.35;;
30068;SDS011;16894;49.456;10.644;2022-08-19T14:40:24;46.60;;;34.88;;
30068;SDS011;16894;49.456;10.644;2022-08-19T14:42:52;52.45;;;36.72;;
30068;SDS011;16894;49.456;10.644;2022-08-19T14:45:23;49.72;;;36.70;;
30068;SDS011;16894;49.456;10.644;2022-08-19T14:47:53;40.83;;;33.40;;
30068;SDS011;16894;49.456;10.644;2022-08-19T14:50:18;46.70;;;32.63;;
30068;SDS011;16894;49.456;10.644;2022-08-19T14:52:45;39.42;;;35.25;;
30068;SDS011;16894;49.456;10.644;2022-08-19T14:55:13;38.63;;;33.08;;
30068;SDS011;16894;49.456;10.644;2022-08-19T14:57:40;49.90;;;38.88;;
30068;SDS011;16894;49.456;10.644;2022-08-19T15:00:06;46.30;;;36.88;;
30068;SDS011;16894;49.456;10.644;2022-08-19T15:02:36;41.33;;;36.65;;
30068;SDS011;16894;49.456;10.644;2022-08-19T15:05:02;53.27;;;41.30;;
30068;SDS011;16894;49.456;10.644;2022-08-19T15:07:28;57.00;;;39.22;;
30068;SDS011;16894;49.456;10.644;2022-08-19T15:09:54;42.00;;;34.42;;
30068;SDS011;16894;49.456;10.644;2022-08-19T15:12:20;44.00;;;34.90;;
30068;SDS011;16894;49.456;10.644;2022-08-19T15:14:47;43.13;;;32.25;;
30068;SDS011;16894;49.456;10.644;2022-08-19T15:17:15;42.78;;;32.53;;
30068;SDS011;16894;49.456;10.644;2022-08-19T15:19:42;71.25;;;43.40;;